Columbus Junction, IA

4:15 PM CDT on September 01, 2014 (GMT -0500)
Purdy Hill (Ken) | Change Station
CLOSE
Current Station
Personal Weather Station
Location: Columbus Junction, IA
Elevation: 656 ft
Nearby Weather Stations

Elev 656 ft 41.28 °N, 91.38 °W | Updated 5 minutes ago

Partly Cloudy
Partly Cloudy
81.1 °F
Feels Like 84 °F
N
1.1
Wind Variable Wind from NW

Today
High -- | Low -- °F
--% Chance of Precip.
Yesterday
High -- | Low -- °F
Precip. -- in
6:31 AM 7:38 PM
Waxing Crescent, 44% visible
Pressure 29.80 in
Visibility 10.0 miles
Clouds Few 3600 ft
Scattered Clouds 4100 ft
Mostly Cloudy 5500 ft
Heat Index 84 °F
Dew Point 68 °F
Humidity 64%
Rainfall 0.83 in
Snow Depth Not available.
UV 3 out of 12
Pollen 5.60 out of 12
Air Quality Not available.
Flu Activity Not available.
METAR KMUT 012055Z AUTO 24014G20KT 10SM FEW036 SCT041 BKN055 27/19 A2980 RMK AO2

More Conditions Fewer Conditions

Pressure 29.80 in
Visibility 10.0 miles
Clouds Few 3600 ft
Scattered Clouds 4100 ft
Mostly Cloudy 5500 ft
Heat Index 84 °F
Dew Point 68 °F
Humidity 64%
Rainfall 0.83 in
Snow Depth Not available.
UV 3 out of 12
Pollen 5.60 out of 12
Air Quality Not available.
Flu Activity Not available.
METAR KMUT 012055Z AUTO 24014G20KT 10SM FEW036 SCT041 BKN055 27/19 A2980 RMK AO2

More Conditions Fewer Conditions

10-Day Weather Forecast

Almanac

Astronomy

Sep. 01, 2014 Rise Set
Actual Time 6:31 AM CDT 7:38 PM CDT
Civil Twilight 6:03 AM CDT 8:06 PM CDT
Nautical Twilight 5:29 AM CDT 8:40 PM CDT
Astronomical Twilight 4:54 AM CDT 9:15 PM CDT
Moon 1:22 PM CDT 11:35 PM CDT
Length of Visible Light 14h 03m
Length of Day
13h 06m
Tomorrow will be 2m 39s shorter.
Waxing Crescent, 44% of the Moon is Illuminated
Today
Waxing Crescent
Sep 2
First Quarter
Sep 8
Full
Sep 15
Last Quarter
Sep 24
New

Today's Extremes

State Highs State Lows

Community

WunderPhotos

Upload Photos

1,749,409 photos uploaded!

WunderBlogs® & News

Nearby

Snow Depth

Station Depth Elevation
No new snow has been reported.

Earthquake Activity

City Distance Mag. Time & Date
No recent earthquake activity has been reported nearby.
Minimum magnitude displayed is 2.5.

Coastal Water Temperatures

Place Temperature
No Stations Reporting

Nearby Weather Stations